sensor_id;sensor_type;location;lat;lon;timestamp;temperature;humidity
47576;DHT22;33304;52.456;13.328;2023-04-15T00:00:19;8.80;99.90
47576;DHT22;33304;52.456;13.328;2023-04-15T00:02:46;8.80;99.90
47576;DHT22;33304;52.456;13.328;2023-04-15T00:05:15;8.80;99.90
47576;DHT22;33304;52.456;13.328;2023-04-15T00:07:42;8.90;99.90
47576;DHT22;33304;52.456;13.328;2023-04-15T00:10:12;8.90;99.90
47576;DHT22;33304;52.456;13.328;2023-04-15T00:12:39;8.80;99.90
47576;DHT22;33304;52.456;13.328;2023-04-15T00:15:08;8.90;99.90
47576;DHT22;33304;52.456;13.328;2023-04-15T00:17:35;8.90;99.90
47576;DHT22;33304;52.456;13.328;2023-04-15T00:20:04;8.90;99.90
47576;DHT22;33304;52.456;13.328;2023-04-15T00:22:32;8.90;99.90
47576;DHT22;33304;52.456;13.328;2023-04-15T00:24:59;8.90;99.90
47576;DHT22;33304;52.456;13.328;2023-04-15T00:27:28;8.90;99.90
47576;DHT22;33304;52.456;13.328;2023-04-15T00:29:55;8.90;99.90
47576;DHT22;33304;52.456;13.328;2023-04-15T00:32:23;8.90;99.90
47576;DHT22;33304;52.456;13.328;2023-04-15T00:34:50;8.90;99.90
47576;DHT22;33304;52.456;13.328;2023-04-15T00:37:17;8.90;99.90
47576;DHT22;33304;52.456;13.328;2023-04-15T00:39:44;8.90;99.90
47576;DHT22;33304;52.456;13.328;2023-04-15T00:42:12;8.90;99.90
47576;DHT22;33304;52.456;13.328;2023-04-15T00:44:41;8.90;99.90
47576;DHT22;33304;52.456;13.328;2023-04-15T00:47:08;8.90;99.90
47576;DHT22;33304;52.456;13.328;2023-04-15T00:49:36;9.00;99.90
47576;DHT22;33304;52.456;13.328;2023-04-15T00:52:03;9.00;99.90
47576;DHT22;33304;52.456;13.328;2023-04-15T00:54:30;9.00;99.90
47576;DHT22;33304;52.456;13.328;2023-04-15T00:56:58;9.00;99.90
47576;DHT22;33304;52.456;13.328;2023-04-15T00:59:26;9.00;99.90
47576;DHT22;33304;52.456;13.328;2023-04-15T01:01:54;9.00;99.90
47576;DHT22;33304;52.456;13.328;2023-04-15T01:04:22;9.00;99.90
47576;DHT22;33304;52.456;13.328;2023-04-15T01:06:49;9.00;99.90
47576;DHT22;33304;52.456;13.328;2023-04-15T01:09:17;9.00;99.90
47576;DHT22;33304;52.456;13.328;2023-04-15T01:11:44;9.00;99.90
47576;DHT22;33304;52.456;13.328;2023-04-15T01:14:12;9.00;99.90
47576;DHT22;33304;52.456;13.328;2023-04-15T01:16:39;9.00;99.90
47576;DHT22;33304;52.456;13.328;2023-04-15T01:19:09;8.90;99.90
47576;DHT22;33304;52.456;13.328;2023-04-15T01:21:37;9.00;99.90
47576;DHT22;33304;52.456;13.328;2023-04-15T01:24:08;9.00;99.90
47576;DHT22;33304;52.456;13.328;2023-04-15T01:26:37;8.90;99.90
47576;DHT22;33304;52.456;13.328;2023-04-15T01:29:06;9.00;99.90
47576;DHT22;33304;52.456;13.328;2023-04-15T01:31:34;9.00;99.90
47576;DHT22;33304;52.456;13.328;2023-04-15T01:34:01;9.00;99.90
47576;DHT22;33304;52.456;13.328;2023-04-15T01:36:28;9.00;99.90
47576;DHT22;33304;52.456;13.328;2023-04-15T01:38:56;8.90;99.90
47576;DHT22;33304;52.456;13.328;2023-04-15T01:41:24;9.00;99.90
47576;DHT22;33304;52.456;13.328;2023-04-15T01:43:54;8.90;99.90
47576;DHT22;33304;52.456;13.328;2023-04-15T01:46:21;9.00;99.90
47576;DHT22;33304;52.456;13.328;2023-04-15T01:48:49;8.80;99.90
47576;DHT22;33304;52.456;13.328;2023-04-15T01:51:16;8.90;99.90
47576;DHT22;33304;52.456;13.328;2023-04-15T01:53:43;8.90;99.90
47576;DHT22;33304;52.456;13.328;2023-04-15T01:56:10;9.00;99.90
47576;DHT22;33304;52.456;13.328;2023-04-15T01:58:37;9.00;99.90
47576;DHT22;33304;52.456;13.328;2023-04-15T02:01:06;8.90;99.90
47576;DHT22;33304;52.456;13.328;2023-04-15T02:03:35;9.00;99.90
47576;DHT22;33304;52.456;13.328;2023-04-15T02:06:02;9.00;99.90
47576;DHT22;33304;52.456;13.328;2023-04-15T02:08:31;9.00;99.90
47576;DHT22;33304;52.456;13.328;2023-04-15T02:10:58;9.10;99.90
47576;DHT22;33304;52.456;13.328;2023-04-15T02:13:26;9.00;99.90
47576;DHT22;33304;52.456;13.328;2023-04-15T02:15:56;9.00;99.90
47576;DHT22;33304;52.456;13.328;2023-04-15T02:18:25;9.00;99.90
47576;DHT22;33304;52.456;13.328;2023-04-15T02:20:52;9.00;99.90
47576;DHT22;33304;52.456;13.328;2023-04-15T02:23:20;9.00;99.90
47576;DHT22;33304;52.456;13.328;2023-04-15T02:25:47;9.00;99.90
47576;DHT22;33304;52.456;13.328;2023-04-15T02:28:14;9.00;99.90
47576;DHT22;33304;52.456;13.328;2023-04-15T02:30:46;8.90;99.90
47576;DHT22;33304;52.456;13.328;2023-04-15T02:33:13;8.90;99.90
47576;DHT22;33304;52.456;13.328;2023-04-15T02:35:42;8.90;99.90
47576;DHT22;33304;52.456;13.328;2023-04-15T02:38:10;8.90;99.90
47576;DHT22;33304;52.456;13.328;2023-04-15T02:40:39;8.90;99.90
47576;DHT22;33304;52.456;13.328;2023-04-15T02:43:06;8.90;99.90
47576;DHT22;33304;52.456;13.328;2023-04-15T02:45:34;9.00;99.90
47576;DHT22;33304;52.456;13.328;2023-04-15T02:48:03;9.00;99.90
47576;DHT22;33304;52.456;13.328;2023-04-15T02:50:31;8.90;99.90
47576;DHT22;33304;52.456;13.328;2023-04-15T02:52:59;9.00;99.90
47576;DHT22;33304;52.456;13.328;2023-04-15T02:55:27;9.00;99.90
47576;DHT22;33304;52.456;13.328;2023-04-15T02:57:55;9.00;99.90
47576;DHT22;33304;52.456;13.328;2023-04-15T03:00:23;9.10;99.90
47576;DHT22;33304;52.456;13.328;2023-04-15T03:02:56;9.10;99.90
47576;DHT22;33304;52.456;13.328;2023-04-15T03:05:23;9.10;99.90
47576;DHT22;33304;52.456;13.328;2023-04-15T03:07:50;9.10;99.90
47576;DHT22;33304;52.456;13.328;2023-04-15T03:10:20;9.10;99.90
47576;DHT22;33304;52.456;13.328;2023-04-15T03:12:47;9.10;99.90
47576;DHT22;33304;52.456;13.328;2023-04-15T03:15:18;9.10;99.90
47576;DHT22;33304;52.456;13.328;2023-04-15T03:17:48;9.10;99.90
47576;DHT22;33304;52.456;13.328;2023-04-15T03:20:16;9.20;99.90
47576;DHT22;33304;52.456;13.328;2023-04-15T03:22:43;9.30;99.90
47576;DHT22;33304;52.456;13.328;2023-04-15T03:25:10;9.20;99.90
47576;DHT22;33304;52.456;13.328;2023-04-15T03:27:40;9.10;99.90
47576;DHT22;33304;52.456;13.328;2023-04-15T03:30:08;9.20;99.90
47576;DHT22;33304;52.456;13.328;2023-04-15T03:32:37;9.10;99.90
47576;DHT22;33304;52.456;13.328;2023-04-15T03:35:06;9.10;99.90
47576;DHT22;33304;52.456;13.328;2023-04-15T03:37:34;9.10;99.90
47576;DHT22;33304;52.456;13.328;2023-04-15T03:40:01;9.20;99.90
47576;DHT22;33304;52.456;13.328;2023-04-15T03:42:28;9.20;99.90
47576;DHT22;33304;52.456;13.328;2023-04-15T03:44:58;9.20;99.90
47576;DHT22;33304;52.456;13.328;2023-04-15T03:47:25;9.10;99.90
47576;DHT22;33304;52.456;13.328;2023-04-15T03:49:52;9.20;99.90
47576;DHT22;33304;52.456;13.328;2023-04-15T03:52:19;9.20;99.90
47576;DHT22;33304;52.456;13.328;2023-04-15T03:54:47;9.20;99.90
47576;DHT22;33304;52.456;13.328;2023-04-15T03:57:14;9.20;99.90
47576;DHT22;33304;52.456;13.328;2023-04-15T03:59:41;9.30;99.90
47576;DHT22;33304;52.456;13.328;2023-04-15T04:02:10;9.30;99.90
47576;DHT22;33304;52.456;13.328;2023-04-15T04:04:37;9.20;99.90
47576;DHT22;33304;52.456;13.328;2023-04-15T04:07:04;9.20;99.90
47576;DHT22;33304;52.456;13.328;2023-04-15T04:09:31;9.30;99.90
47576;DHT22;33304;52.456;13.328;2023-04-15T04:11:58;9.30;99.90
47576;DHT22;33304;52.456;13.328;2023-04-15T04:14:26;9.30;99.90
47576;DHT22;33304;52.456;13.328;2023-04-15T04:16:54;9.30;99.90
47576;DHT22;33304;52.456;13.328;2023-04-15T04:19:23;9.30;99.90
47576;DHT22;33304;52.456;13.328;2023-04-15T04:21:51;9.30;99.90
47576;DHT22;33304;52.456;13.328;2023-04-15T04:24:18;9.30;99.90
47576;DHT22;33304;52.456;13.328;2023-04-15T04:26:45;9.30;99.90
47576;DHT22;33304;52.456;13.328;2023-04-15T04:29:12;9.30;99.90
47576;DHT22;33304;52.456;13.328;2023-04-15T04:31:39;9.30;99.90
47576;DHT22;33304;52.456;13.328;2023-04-15T04:34:06;9.30;99.90
47576;DHT22;33304;52.456;13.328;2023-04-15T04:36:35;9.30;99.90
47576;DHT22;33304;52.456;13.328;2023-04-15T04:39:02;9.40;99.90
47576;DHT22;33304;52.456;13.328;2023-04-15T04:41:29;9.40;99.90
47576;DHT22;33304;52.456;13.328;2023-04-15T04:43:57;9.40;99.90
47576;DHT22;33304;52.456;13.328;2023-04-15T04:46:24;9.40;99.90
47576;DHT22;33304;52.456;13.328;2023-04-15T04:48:51;9.50;99.90
47576;DHT22;33304;52.456;13.328;2023-04-15T04:51:18;9.40;99.90
47576;DHT22;33304;52.456;13.328;2023-04-15T04:53:47;9.40;99.90
47576;DHT22;33304;52.456;13.328;2023-04-15T04:56:14;9.40;99.90
47576;DHT22;33304;52.456;13.328;2023-04-15T04:58:41;9.50;99.90
47576;DHT22;33304;52.456;13.328;2023-04-15T05:01:08;9.50;99.90
47576;DHT22;33304;52.456;13.328;2023-04-15T05:03:35;9.50;99.90
47576;DHT22;33304;52.456;13.328;2023-04-15T05:06:03;9.50;99.90
47576;DHT22;33304;52.456;13.328;2023-04-15T05:08:31;9.50;99.90
47576;DHT22;33304;52.456;13.328;2023-04-15T05:10:59;9.50;99.90
47576;DHT22;33304;52.456;13.328;2023-04-15T05:13:27;9.60;99.90
47576;DHT22;33304;52.456;13.328;2023-04-15T05:15:55;9.60;99.90
47576;DHT22;33304;52.456;13.328;2023-04-15T05:18:22;9.60;99.90
47576;DHT22;33304;52.456;13.328;2023-04-15T05:20:49;9.60;99.90
47576;DHT22;33304;52.456;13.328;2023-04-15T05:23:16;9.60;99.90
47576;DHT22;33304;52.456;13.328;2023-04-15T05:25:43;9.70;99.90
47576;DHT22;33304;52.456;13.328;2023-04-15T05:28:12;9.70;99.90
47576;DHT22;33304;52.456;13.328;2023-04-15T05:30:39;9.70;99.90
47576;DHT22;33304;52.456;13.328;2023-04-15T05:33:06;9.70;99.90
47576;DHT22;33304;52.456;13.328;2023-04-15T05:35:34;9.70;99.90
47576;DHT22;33304;52.456;13.328;2023-04-15T05:38:01;9.70;99.90
47576;DHT22;33304;52.456;13.328;2023-04-15T05:40:29;9.70;99.90
47576;DHT22;33304;52.456;13.328;2023-04-15T05:42:56;9.70;99.90
47576;DHT22;33304;52.456;13.328;2023-04-15T05:45:25;9.70;99.90
47576;DHT22;33304;52.456;13.328;2023-04-15T05:47:52;9.70;99.90
47576;DHT22;33304;52.456;13.328;2023-04-15T05:50:19;9.80;99.90
47576;DHT22;33304;52.456;13.328;2023-04-15T05:52:47;9.90;99.90
47576;DHT22;33304;52.456;13.328;2023-04-15T05:55:14;9.90;99.90
47576;DHT22;33304;52.456;13.328;2023-04-15T05:57:41;9.90;99.90
47576;DHT22;33304;52.456;13.328;2023-04-15T06:00:09;9.90;99.90
47576;DHT22;33304;52.456;13.328;2023-04-15T06:02:38;10.00;97.30
47576;DHT22;33304;52.456;13.328;2023-04-15T06:05:05;10.10;94.40
47576;DHT22;33304;52.456;13.328;2023-04-15T06:07:34;10.20;94.40
47576;DHT22;33304;52.456;13.328;2023-04-15T06:10:02;10.20;93.70
47576;DHT22;33304;52.456;13.328;2023-04-15T06:12:30;10.30;90.90
47576;DHT22;33304;52.456;13.328;2023-04-15T06:14:57;10.20;90.10
47576;DHT22;33304;52.456;13.328;2023-04-15T06:17:25;10.20;91.70
47576;DHT22;33304;52.456;13.328;2023-04-15T06:19:53;10.20;90.60
47576;DHT22;33304;52.456;13.328;2023-04-15T06:22:20;10.30;88.20
47576;DHT22;33304;52.456;13.328;2023-04-15T06:24:48;10.30;86.60
47576;DHT22;33304;52.456;13.328;2023-04-15T06:27:15;10.30;87.80
47576;DHT22;33304;52.456;13.328;2023-04-15T06:29:42;10.30;86.70
47576;DHT22;33304;52.456;13.328;2023-04-15T06:32:09;10.30;86.60
47576;DHT22;33304;52.456;13.328;2023-04-15T06:34:37;10.30;83.00
47576;DHT22;33304;52.456;13.328;2023-04-15T06:37:05;10.40;79.00
47576;DHT22;33304;52.456;13.328;2023-04-15T06:39:32;10.40;80.40
47576;DHT22;33304;52.456;13.328;2023-04-15T06:41:59;10.30;81.50
47576;DHT22;33304;52.456;13.328;2023-04-15T06:44:28;10.50;76.50
47576;DHT22;33304;52.456;13.328;2023-04-15T06:46:55;10.50;75.50
47576;DHT22;33304;52.456;13.328;2023-04-15T06:49:22;10.60;72.00
47576;DHT22;33304;52.456;13.328;2023-04-15T06:51:50;10.60;71.30
47576;DHT22;33304;52.456;13.328;2023-04-15T06:54:19;10.70;68.80
47576;DHT22;33304;52.456;13.328;2023-04-15T06:56:46;10.70;68.70
47576;DHT22;33304;52.456;13.328;2023-04-15T06:59:13;10.80;68.00
47576;DHT22;33304;52.456;13.328;2023-04-15T07:01:40;10.90;69.40
47576;DHT22;33304;52.456;13.328;2023-04-15T07:04:07;11.00;66.20
47576;DHT22;33304;52.456;13.328;2023-04-15T07:06:34;10.90;65.00
47576;DHT22;33304;52.456;13.328;2023-04-15T07:09:02;10.90;64.30
47576;DHT22;33304;52.456;13.328;2023-04-15T07:11:31;11.00;62.70
47576;DHT22;33304;52.456;13.328;2023-04-15T07:13:58;11.10;61.90
47576;DHT22;33304;52.456;13.328;2023-04-15T07:16:25;11.10;62.50
47576;DHT22;33304;52.456;13.328;2023-04-15T07:18:53;11.20;61.10
47576;DHT22;33304;52.456;13.328;2023-04-15T07:21:20;11.20;60.80
47576;DHT22;33304;52.456;13.328;2023-04-15T07:23:47;11.30;59.20
47576;DHT22;33304;52.456;13.328;2023-04-15T07:26:14;11.30;58.90
47576;DHT22;33304;52.456;13.328;2023-04-15T07:28:43;11.20;55.50
47576;DHT22;33304;52.456;13.328;2023-04-15T07:31:11;11.20;56.10
47576;DHT22;33304;52.456;13.328;2023-04-15T07:33:38;11.10;56.00
47576;DHT22;33304;52.456;13.328;2023-04-15T07:36:05;11.00;56.90
47576;DHT22;33304;52.456;13.328;2023-04-15T07:38:32;11.10;58.10
47576;DHT22;33304;52.456;13.328;2023-04-15T07:40:59;11.00;55.30
47576;DHT22;33304;52.456;13.328;2023-04-15T07:43:26;11.00;56.10
47576;DHT22;33304;52.456;13.328;2023-04-15T07:45:55;11.10;55.60
47576;DHT22;33304;52.456;13.328;2023-04-15T07:48:22;11.10;56.30
47576;DHT22;33304;52.456;13.328;2023-04-15T07:50:49;11.20;56.50
47576;DHT22;33304;52.456;13.328;2023-04-15T07:53:16;11.20;57.10
47576;DHT22;33304;52.456;13.328;2023-04-15T07:55:44;11.20;55.50
47576;DHT22;33304;52.456;13.328;2023-04-15T07:58:11;11.30;55.60
47576;DHT22;33304;52.456;13.328;2023-04-15T08:00:38;11.20;53.70
47576;DHT22;33304;52.456;13.328;2023-04-15T08:03:07;11.20;54.60
47576;DHT22;33304;52.456;13.328;2023-04-15T08:05:34;11.10;53.50
47576;DHT22;33304;52.456;13.328;2023-04-15T08:08:01;11.10;53.30
47576;DHT22;33304;52.456;13.328;2023-04-15T08:10:28;11.00;53.60
47576;DHT22;33304;52.456;13.328;2023-04-15T08:12:55;11.00;55.30
47576;DHT22;33304;52.456;13.328;2023-04-15T08:15:22;11.10;55.40
47576;DHT22;33304;52.456;13.328;2023-04-15T08:17:49;11.00;54.50
47576;DHT22;33304;52.456;13.328;2023-04-15T08:20:18;11.10;53.70
47576;DHT22;33304;52.456;13.328;2023-04-15T08:22:45;11.10;54.70
47576;DHT22;33304;52.456;13.328;2023-04-15T08:25:16;11.20;53.40
47576;DHT22;33304;52.456;13.328;2023-04-15T08:27:44;11.20;53.40
47576;DHT22;33304;52.456;13.328;2023-04-15T08:30:12;11.20;54.50
47576;DHT22;33304;52.456;13.328;2023-04-15T08:32:40;11.00;53.70
47576;DHT22;33304;52.456;13.328;2023-04-15T08:35:08;11.00;55.20
47576;DHT22;33304;52.456;13.328;2023-04-15T08:37:37;11.10;53.60
47576;DHT22;33304;52.456;13.328;2023-04-15T08:40:05;11.20;54.30
47576;DHT22;33304;52.456;13.328;2023-04-15T08:42:36;11.20;52.60
47576;DHT22;33304;52.456;13.328;2023-04-15T08:45:08;11.10;53.80
47576;DHT22;33304;52.456;13.328;2023-04-15T08:47:37;11.20;53.60
47576;DHT22;33304;52.456;13.328;2023-04-15T08:50:08;11.10;53.50
47576;DHT22;33304;52.456;13.328;2023-04-15T08:52:37;11.10;53.70
47576;DHT22;33304;52.456;13.328;2023-04-15T08:55:07;11.00;53.90
47576;DHT22;33304;52.456;13.328;2023-04-15T08:57:35;11.00;53.60
47576;DHT22;33304;52.456;13.328;2023-04-15T09:00:06;11.00;53.00
47576;DHT22;33304;52.456;13.328;2023-04-15T09:02:34;11.10;54.10
47576;DHT22;33304;52.456;13.328;2023-04-15T09:05:01;11.10;54.30
47576;DHT22;33304;52.456;13.328;2023-04-15T09:07:32;11.10;54.30
47576;DHT22;33304;52.456;13.328;2023-04-15T09:10:02;11.10;54.00
47576;DHT22;33304;52.456;13.328;2023-04-15T09:12:29;11.10;53.60
47576;DHT22;33304;52.456;13.328;2023-04-15T09:14:57;11.10;55.00
47576;DHT22;33304;52.456;13.328;2023-04-15T09:17:24;11.10;55.40
47576;DHT22;33304;52.456;13.328;2023-04-15T09:20:07;11.10;55.40
47576;DHT22;33304;52.456;13.328;2023-04-15T09:22:35;11.10;55.40
47576;DHT22;33304;52.456;13.328;2023-04-15T09:25:24;11.10;55.40
47576;DHT22;33304;52.456;13.328;2023-04-15T09:27:53;11.10;55.40
47576;DHT22;33304;52.456;13.328;2023-04-15T09:30:21;11.00;55.30
47576;DHT22;33304;52.456;13.328;2023-04-15T09:32:49;11.00;55.30
47576;DHT22;33304;52.456;13.328;2023-04-15T09:35:17;11.00;55.30
47576;DHT22;33304;52.456;13.328;2023-04-15T09:37:45;11.00;55.30
47576;DHT22;33304;52.456;13.328;2023-04-15T09:40:13;11.10;55.40
47576;DHT22;33304;52.456;13.328;2023-04-15T09:42:54;11.10;56.40
47576;DHT22;33304;52.456;13.328;2023-04-15T09:45:22;11.00;56.60
47576;DHT22;33304;52.456;13.328;2023-04-15T09:47:49;11.00;57.30
47576;DHT22;33304;52.456;13.328;2023-04-15T09:50:18;11.00;58.00
47576;DHT22;33304;52.456;13.328;2023-04-15T09:52:46;11.00;57.30
47576;DHT22;33304;52.456;13.328;2023-04-15T09:55:17;11.00;56.90
47576;DHT22;33304;52.456;13.328;2023-04-15T09:57:55;11.00;58.50
47576;DHT22;33304;52.456;13.328;2023-04-15T10:00:22;10.90;58.40
47576;DHT22;33304;52.456;13.328;2023-04-15T10:02:50;11.00;58.50
47576;DHT22;33304;52.456;13.328;2023-04-15T10:05:17;10.90;58.90
47576;DHT22;33304;52.456;13.328;2023-04-15T10:07:45;10.90;59.00
47576;DHT22;33304;52.456;13.328;2023-04-15T10:10:13;10.90;59.70
47576;DHT22;33304;52.456;13.328;2023-04-15T10:12:41;10.90;59.60
47576;DHT22;33304;52.456;13.328;2023-04-15T10:15:14;10.90;60.60
47576;DHT22;33304;52.456;13.328;2023-04-15T10:17:43;10.90;60.30
47576;DHT22;33304;52.456;13.328;2023-04-15T10:20:11;10.90;60.50
47576;DHT22;33304;52.456;13.328;2023-04-15T10:22:40;10.80;61.90
47576;DHT22;33304;52.456;13.328;2023-04-15T10:25:08;10.80;63.40
47576;DHT22;33304;52.456;13.328;2023-04-15T10:27:37;10.80;64.10
47576;DHT22;33304;52.456;13.328;2023-04-15T10:30:06;10.80;65.40
47576;DHT22;33304;52.456;13.328;2023-04-15T10:32:35;10.80;66.10
47576;DHT22;33304;52.456;13.328;2023-04-15T10:35:05;10.80;66.10
47576;DHT22;33304;52.456;13.328;2023-04-15T10:37:35;10.80;68.70
47576;DHT22;33304;52.456;13.328;2023-04-15T10:40:22;10.90;68.80
47576;DHT22;33304;52.456;13.328;2023-04-15T10:42:49;10.90;69.30
47576;DHT22;33304;52.456;13.328;2023-04-15T10:45:17;10.90;70.70
47576;DHT22;33304;52.456;13.328;2023-04-15T10:47:51;11.00;70.70
47576;DHT22;33304;52.456;13.328;2023-04-15T10:50:19;11.00;71.70
47576;DHT22;33304;52.456;13.328;2023-04-15T10:52:49;11.00;72.50
47576;DHT22;33304;52.456;13.328;2023-04-15T10:55:19;11.10;75.40
47576;DHT22;33304;52.456;13.328;2023-04-15T10:57:51;11.00;74.40
47576;DHT22;33304;52.456;13.328;2023-04-15T11:00:19;11.00;73.70
47576;DHT22;33304;52.456;13.328;2023-04-15T11:02:52;10.90;74.30
47576;DHT22;33304;52.456;13.328;2023-04-15T11:05:20;11.00;77.80
47576;DHT22;33304;52.456;13.328;2023-04-15T11:07:50;11.00;80.10
47576;DHT22;33304;52.456;13.328;2023-04-15T11:10:52;11.00;81.70
47576;DHT22;33304;52.456;13.328;2023-04-15T11:13:28;10.90;79.10
47576;DHT22;33304;52.456;13.328;2023-04-15T11:16:01;10.90;77.90
47576;DHT22;33304;52.456;13.328;2023-04-15T11:18:33;10.90;76.90
47576;DHT22;33304;52.456;13.328;2023-04-15T11:21:03;10.90;77.40
47576;DHT22;33304;52.456;13.328;2023-04-15T11:23:32;10.90;76.90
47576;DHT22;33304;52.456;13.328;2023-04-15T11:26:02;10.90;76.90
47576;DHT22;33304;52.456;13.328;2023-04-15T11:28:31;10.90;78.60
47576;DHT22;33304;52.456;13.328;2023-04-15T11:31:05;10.90;78.90
47576;DHT22;33304;52.456;13.328;2023-04-15T11:33:34;10.90;80.10
47576;DHT22;33304;52.456;13.328;2023-04-15T11:36:02;10.90;82.10
47576;DHT22;33304;52.456;13.328;2023-04-15T11:38:29;10.90;82.60
47576;DHT22;33304;52.456;13.328;2023-04-15T11:40:57;10.90;82.10
47576;DHT22;33304;52.456;13.328;2023-04-15T11:43:24;10.90;83.80
47576;DHT22;33304;52.456;13.328;2023-04-15T11:45:53;11.00;85.70
47576;DHT22;33304;52.456;13.328;2023-04-15T11:48:22;10.90;85.90
47576;DHT22;33304;52.456;13.328;2023-04-15T11:50:55;10.90;86.20
47576;DHT22;33304;52.456;13.328;2023-04-15T11:53:23;10.90;87.80
47576;DHT22;33304;52.456;13.328;2023-04-15T11:55:52;10.90;88.10
47576;DHT22;33304;52.456;13.328;2023-04-15T11:58:20;10.90;90.40
47576;DHT22;33304;52.456;13.328;2023-04-15T12:00:51;11.00;90.90
47576;DHT22;33304;52.456;13.328;2023-04-15T12:03:21;11.00;90.60
47576;DHT22;33304;52.456;13.328;2023-04-15T12:06:11;11.10;89.90
47576;DHT22;33304;52.456;13.328;2023-04-15T12:08:59;11.10;90.10
47576;DHT22;33304;52.456;13.328;2023-04-15T12:11:31;11.10;90.30
47576;DHT22;33304;52.456;13.328;2023-04-15T12:14:03;11.20;91.00
47576;DHT22;33304;52.456;13.328;2023-04-15T12:16:32;11.20;91.00
47576;DHT22;33304;52.456;13.328;2023-04-15T12:19:03;11.10;90.80
47576;DHT22;33304;52.456;13.328;2023-04-15T12:21:34;11.30;91.10
47576;DHT22;33304;52.456;13.328;2023-04-15T12:24:03;11.20;91.00
47576;DHT22;33304;52.456;13.328;2023-04-15T12:26:35;11.20;91.10
47576;DHT22;33304;52.456;13.328;2023-04-15T12:29:05;11.30;91.10
47576;DHT22;33304;52.456;13.328;2023-04-15T12:31:33;11.30;93.80
47576;DHT22;33304;52.456;13.328;2023-04-15T12:34:02;11.40;93.50
47576;DHT22;33304;52.456;13.328;2023-04-15T12:36:30;11.40;92.30
47576;DHT22;33304;52.456;13.328;2023-04-15T12:39:03;11.40;92.20
47576;DHT22;33304;52.456;13.328;2023-04-15T12:41:31;11.50;91.20
47576;DHT22;33304;52.456;13.328;2023-04-15T12:43:58;11.50;91.20
47576;DHT22;33304;52.456;13.328;2023-04-15T12:46:25;11.50;86.90
47576;DHT22;33304;52.456;13.328;2023-04-15T12:48:53;11.50;83.40
47576;DHT22;33304;52.456;13.328;2023-04-15T12:51:20;11.50;83.50
47576;DHT22;33304;52.456;13.328;2023-04-15T12:53:47;11.50;84.80
47576;DHT22;33304;52.456;13.328;2023-04-15T12:56:16;11.60;87.80
47576;DHT22;33304;52.456;13.328;2023-04-15T12:58:43;11.60;89.80
47576;DHT22;33304;52.456;13.328;2023-04-15T13:01:11;11.60;88.80
47576;DHT22;33304;52.456;13.328;2023-04-15T13:03:38;11.60;90.00
47576;DHT22;33304;52.456;13.328;2023-04-15T13:06:05;11.70;87.90
47576;DHT22;33304;52.456;13.328;2023-04-15T13:08:33;11.80;87.90
47576;DHT22;33304;52.456;13.328;2023-04-15T13:11:00;11.90;88.00
47576;DHT22;33304;52.456;13.328;2023-04-15T13:13:28;11.90;80.40
47576;DHT22;33304;52.456;13.328;2023-04-15T13:15:56;11.90;81.30
47576;DHT22;33304;52.456;13.328;2023-04-15T13:18:24;11.90;79.30
47576;DHT22;33304;52.456;13.328;2023-04-15T13:20:51;11.90;78.80
47576;DHT22;33304;52.456;13.328;2023-04-15T13:23:18;11.90;77.90
47576;DHT22;33304;52.456;13.328;2023-04-15T13:25:45;11.80;76.40
47576;DHT22;33304;52.456;13.328;2023-04-15T13:28:12;11.80;75.80
47576;DHT22;33304;52.456;13.328;2023-04-15T13:30:41;11.80;77.70
47576;DHT22;33304;52.456;13.328;2023-04-15T13:33:09;11.80;76.10
47576;DHT22;33304;52.456;13.328;2023-04-15T13:35:36;11.90;76.50
47576;DHT22;33304;52.456;13.328;2023-04-15T13:38:03;11.90;76.50
47576;DHT22;33304;52.456;13.328;2023-04-15T13:40:30;11.90;77.80
47576;DHT22;33304;52.456;13.328;2023-04-15T13:42:57;11.90;76.90
47576;DHT22;33304;52.456;13.328;2023-04-15T13:45:24;11.90;76.50
47576;DHT22;33304;52.456;13.328;2023-04-15T13:47:54;12.00;74.90
47576;DHT22;33304;52.456;13.328;2023-04-15T13:50:21;11.80;76.20
47576;DHT22;33304;52.456;13.328;2023-04-15T13:52:48;11.90;77.00
47576;DHT22;33304;52.456;13.328;2023-04-15T13:55:15;11.80;76.50
47576;DHT22;33304;52.456;13.328;2023-04-15T13:57:43;11.80;76.60
47576;DHT22;33304;52.456;13.328;2023-04-15T14:00:11;11.80;76.20
47576;DHT22;33304;52.456;13.328;2023-04-15T14:02:39;11.80;75.90
47576;DHT22;33304;52.456;13.328;2023-04-15T14:05:08;11.90;75.50
47576;DHT22;33304;52.456;13.328;2023-04-15T14:07:36;11.80;77.70
47576;DHT22;33304;52.456;13.328;2023-04-15T14:10:03;11.80;77.70
47576;DHT22;33304;52.456;13.328;2023-04-15T14:12:31;11.80;77.70
47576;DHT22;33304;52.456;13.328;2023-04-15T14:14:58;11.70;76.10
47576;DHT22;33304;52.456;13.328;2023-04-15T14:17:25;11.60;77.50
47576;DHT22;33304;52.456;13.328;2023-04-15T14:19:52;11.60;77.50
47576;DHT22;33304;52.456;13.328;2023-04-15T14:22:21;11.60;77.50
47576;DHT22;33304;52.456;13.328;2023-04-15T14:24:48;11.50;79.00
47576;DHT22;33304;52.456;13.328;2023-04-15T14:27:18;11.50;80.90
47576;DHT22;33304;52.456;13.328;2023-04-15T14:29:45;11.50;82.60
47576;DHT22;33304;52.456;13.328;2023-04-15T14:32:12;11.50;84.10
47576;DHT22;33304;52.456;13.328;2023-04-15T14:35:18;11.50;82.70
47576;DHT22;33304;52.456;13.328;2023-04-15T14:37:51;11.40;82.40
47576;DHT22;33304;52.456;13.328;2023-04-15T14:40:18;11.40;82.50
47576;DHT22;33304;52.456;13.328;2023-04-15T14:42:45;11.30;84.00
47576;DHT22;33304;52.456;13.328;2023-04-15T14:45:12;11.30;85.40
47576;DHT22;33304;52.456;13.328;2023-04-15T14:47:40;11.30;86.40
47576;DHT22;33304;52.456;13.328;2023-04-15T14:50:07;11.40;85.30
47576;DHT22;33304;52.456;13.328;2023-04-15T14:52:35;11.30;85.00
47576;DHT22;33304;52.456;13.328;2023-04-15T14:55:07;11.40;85.10
47576;DHT22;33304;52.456;13.328;2023-04-15T14:57:35;11.40;87.70
47576;DHT22;33304;52.456;13.328;2023-04-15T15:00:03;11.40;90.80
47576;DHT22;33304;52.456;13.328;2023-04-15T15:02:32;11.40;90.20
47576;DHT22;33304;52.456;13.328;2023-04-15T15:04:59;11.50;90.70
47576;DHT22;33304;52.456;13.328;2023-04-15T15:07:27;11.40;91.10
47576;DHT22;33304;52.456;13.328;2023-04-15T15:09:54;11.40;91.00
47576;DHT22;33304;52.456;13.328;2023-04-15T15:12:22;11.50;90.60
47576;DHT22;33304;52.456;13.328;2023-04-15T15:14:49;11.40;91.20
47576;DHT22;33304;52.456;13.328;2023-04-15T15:17:17;11.50;91.20
47576;DHT22;33304;52.456;13.328;2023-04-15T15:19:44;11.40;91.10
47576;DHT22;33304;52.456;13.328;2023-04-15T15:22:11;11.40;90.90
47576;DHT22;33304;52.456;13.328;2023-04-15T15:24:38;11.40;91.20
47576;DHT22;33304;52.456;13.328;2023-04-15T15:27:06;11.30;90.80
47576;DHT22;33304;52.456;13.328;2023-04-15T15:29:34;11.30;91.50